Time;durP1;ratioP1;P1;durP2;ratioP2;P2;SDS_P1;SDS_P2;PMS_P1;PMS_P2;Temp;Humidity;BMP_temperature;BMP_pressure;BME280_temperature;BME280_humidity;BME280_pressure;Samples;Min_cycle;Max_cycle;Signal;HPM_P1;HPM_P2
2023/06/14 00:01:48;;;;;;;6.80;1.45;;;15.70;91.30;;;;;;4947263;28;20130;-92
2023/06/14 00:04:32;;;;;;;10.73;1.50;;;15.70;91.40;;;;;;4931146;28;20106;-92
2023/06/14 00:06:57;;;;;;;;;;;15.70;91.50;;;;;;4936378;28;20114;-93
2023/06/14 00:09:23;;;;;;;5.72;1.40;;;15.10;91.40;;;;;;4936053;29;20430;-92
2023/06/14 00:11:49;;;;;;;4.80;1.60;;;15.50;91.60;;;;;;4948557;28;20383;-92
2023/06/14 00:14:14;;;;;;;5.80;1.67;;;15.50;91.90;;;;;;4943922;29;20070;-91
2023/06/14 00:16:42;;;;;;;4.65;1.63;;;15.50;92.10;;;;;;4946894;28;20516;-92
2023/06/14 00:19:10;;;;;;;5.28;1.45;;;15.40;92.30;;;;;;4943769;29;20039;-92
2023/06/14 00:21:36;;;;;;;5.88;1.38;;;15.40;92.50;;;;;;4935696;28;20050;-92
2023/06/14 00:24:02;;;;;;;3.63;1.58;;;15.40;92.60;;;;;;4929193;29;20044;-92
2023/06/14 00:26:28;;;;;;;9.88;1.77;;;15.30;92.80;;;;;;4923497;28;20066;-91
2023/06/14 00:28:56;;;;;;;9.80;1.70;;;15.20;93.00;;;;;;4944015;29;20202;-92
2023/06/14 00:31:22;;;;;;;7.15;1.50;;;15.20;93.20;;;;;;4936286;28;20042;-92
2023/06/14 00:33:48;;;;;;;6.20;1.60;;;15.10;93.40;;;;;;4946197;28;20031;-92
2023/06/14 00:36:13;;;;;;;4.97;1.15;;;15.10;93.70;;;;;;4937991;28;20454;-92
2023/06/14 00:38:39;;;;;;;5.45;1.63;;;15.10;93.90;;;;;;4954728;28;20042;-91
2023/06/14 00:41:05;;;;;;;5.28;1.45;;;15.00;94.10;;;;;;4935622;29;20055;-91
2023/06/14 00:43:31;;;;;;;7.50;1.40;;;15.00;94.40;;;;;;4930149;28;20105;-92
2023/06/14 00:45:57;;;;;;;3.25;1.30;;;15.00;94.60;;;;;;4950754;29;20043;-91
2023/06/14 00:48:24;;;;;;;6.82;1.67;;;14.90;94.80;;;;;;4928605;28;20491;-92
2023/06/14 00:50:52;;;;;;;9.50;1.42;;;14.90;95.10;;;;;;4938151;28;20050;-93
2023/06/14 00:53:20;;;;;;;4.80;1.42;;;14.80;95.30;;;;;;4938248;28;20046;-91
2023/06/14 00:55:46;;;;;;;5.53;1.65;;;14.80;95.60;;;;;;4944712;29;20043;-92
2023/06/14 00:58:13;;;;;;;3.53;1.50;;;14.80;96.00;;;;;;4937854;28;20129;-92
2023/06/14 01:00:39;;;;;;;10.15;1.50;;;14.70;96.20;;;;;;4936994;28;20093;-92
2023/06/14 01:03:05;;;;;;;7.85;1.55;;;14.70;96.50;;;;;;4942938;29;20051;-91
2023/06/14 01:05:31;;;;;;;7.70;1.60;;;14.70;96.80;;;;;;4935518;28;20120;-90
2023/06/14 01:08:26;;;;;;;3.55;1.52;;;14.60;97.00;;;;;;4953574;28;20081;-91
2023/06/14 01:11:13;;;;;;;3.70;1.38;;;14.60;97.30;;;;;;4927040;28;20050;-91
2023/06/14 01:13:43;;;;;;;8.60;1.40;;;14.60;97.40;;;;;;4937791;28;20042;-91
2023/06/14 01:16:10;;;;;;;6.13;1.60;;;14.60;97.70;;;;;;4937801;28;20042;-91
2023/06/14 01:18:36;;;;;;;5.43;1.50;;;14.60;98.00;;;;;;4931111;29;20134;-90
2023/06/14 01:21:05;;;;;;;3.38;1.17;;;14.60;98.20;;;;;;4931051;28;20081;-90
2023/06/14 01:23:32;;;;;;;9.18;1.50;;;14.50;98.40;;;;;;4936220;28;20060;-91
2023/06/14 01:25:58;;;;;;;7.43;1.63;;;14.50;98.70;;;;;;4937275;28;20041;-90
2023/06/14 01:28:26;;;;;;;3.55;1.30;;;14.50;98.90;;;;;;4933889;28;20059;-90
2023/06/14 01:30:54;;;;;;;10.05;1.25;;;14.50;99.20;;;;;;4945876;28;20082;-92
2023/06/14 01:33:26;;;;;;;3.92;1.45;;;14.50;99.40;;;;;;4926143;28;20043;-92
2023/06/14 01:35:53;;;;;;;4.82;1.40;;;14.40;99.70;;;;;;4935623;28;20411;-91
2023/06/14 01:38:22;;;;;;;11.13;1.58;;;14.40;99.90;;;;;;4923797;29;20126;-92
2023/06/14 01:40:50;;;;;;;4.80;1.52;;;14.40;99.90;;;;;;4932891;28;20487;-91
2023/06/14 01:43:17;;;;;;;9.32;1.60;;;14.40;99.90;;;;;;4937437;28;20043;-90
2023/06/14 01:45:45;;;;;;;10.38;1.80;;;14.40;99.90;;;;;;4934949;28;20129;-91
2023/06/14 01:48:12;;;;;;;6.18;1.90;;;14.40;99.90;;;;;;4927571;28;20126;-91
2023/06/14 01:50:38;;;;;;;8.75;1.40;;;14.40;99.90;;;;;;4952325;28;20078;-92
2023/06/14 01:53:08;;;;;;;5.88;1.17;;;14.30;99.90;;;;;;4929170;29;20110;-91
2023/06/14 01:55:37;;;;;;;4.82;1.42;;;14.30;99.90;;;;;;4932312;28;20097;-91
2023/06/14 01:58:04;;;;;;;4.93;1.50;;;14.30;99.90;;;;;;4937505;28;20050;-91
2023/06/14 02:00:30;;;;;;;5.07;1.63;;;14.30;99.90;;;;;;4948796;28;20045;-92
2023/06/14 02:02:56;;;;;;;4.15;1.40;;;14.20;99.90;;;;;;4937479;28;20395;-91
2023/06/14 02:05:22;;;;;;;7.55;1.88;;;14.20;99.90;;;;;;4935731;28;20039;-91
2023/06/14 02:07:48;;;;;;;6.25;1.52;;;14.20;99.90;;;;;;4927123;29;20098;-92
2023/06/14 02:10:14;;;;;;;3.60;1.35;;;14.20;99.90;;;;;;4935431;29;20063;-91
2023/06/14 02:12:40;;;;;;;5.82;1.58;;;14.20;99.90;;;;;;4936502;29;20089;-91
2023/06/14 02:15:06;;;;;;;9.60;1.90;;;14.20;99.90;;;;;;4933491;28;20053;-89
2023/06/14 02:17:33;;;;;;;9.77;1.60;;;14.10;99.90;;;;;;4940737;28;20559;-92
2023/06/14 02:19:59;;;;;;;5.07;1.60;;;14.10;99.90;;;;;;4939695;28;20043;-91
2023/06/14 02:22:25;;;;;;;9.00;1.67;;;14.10;99.90;;;;;;4947952;28;20502;-90
2023/06/14 02:24:51;;;;;;;9.70;1.95;;;14.00;99.90;;;;;;4936203;29;20039;-91
2023/06/14 02:27:18;;;;;;;5.72;2.58;;;14.00;99.90;;;;;;4948332;28;20452;-90
2023/06/14 02:29:43;;;;;;;7.75;1.80;;;14.00;99.90;;;;;;4940646;28;20122;-91
2023/06/14 02:32:09;;;;;;;10.63;2.03;;;14.00;99.90;;;;;;4956426;28;20058;-91
2023/06/14 02:34:35;;;;;;;6.72;1.83;;;14.00;99.90;;;;;;4940353;28;20471;-90
2023/06/14 02:37:03;;;;;;;5.65;2.20;;;13.90;99.90;;;;;;4940452;28;20141;-91
2023/06/14 02:39:29;;;;;;;6.47;1.65;;;13.90;99.90;;;;;;4922272;29;20035;-91
2023/06/14 02:41:55;;;;;;;9.40;2.22;;;13.90;99.90;;;;;;4931695;28;20046;-90
2023/06/14 02:44:27;;;;;;;9.57;1.75;;;13.90;99.90;;;;;;4939474;28;20414;-90
2023/06/14 02:46:58;;;;;;;5.65;1.90;;;13.90;99.90;;;;;;4928250;29;20424;-90
2023/06/14 02:49:25;;;;;;;7.30;1.85;;;13.90;99.90;;;;;;4955040;28;20055;-91
2023/06/14 02:51:50;;;;;;;9.93;2.30;;;13.90;99.90;;;;;;4940458;28;20043;-90
2023/06/14 02:54:20;;;;;;;9.82;2.10;;;14.00;99.90;;;;;;4938765;28;20509;-91
2023/06/14 02:56:45;;;;;;;4.90;1.88;;;14.00;99.90;;;;;;4939798;28;20042;-90
2023/06/14 02:59:13;;;;;;;7.35;1.88;;;14.00;99.90;;;;;;4940106;28;20039;-90
2023/06/14 03:01:40;;;;;;;4.57;1.77;;;14.10;99.90;;;;;;4925754;28;20051;-90
2023/06/14 03:04:07;;;;;;;4.90;2.15;;;14.10;99.90;;;;;;4955089;28;20038;-90
2023/06/14 03:06:33;;;;;;;9.02;2.13;;;14.10;99.90;;;;;;4938393;28;20050;-90
2023/06/14 03:09:00;;;;;;;5.80;1.85;;;14.10;99.90;;;;;;4919349;29;20047;-90
2023/06/14 03:11:27;;;;;;;9.02;2.50;;;14.10;99.90;;;;;;4920736;28;20146;-90
2023/06/14 03:13:53;;;;;;;7.80;2.13;;;14.10;99.90;;;;;;4927551;28;20039;-91
2023/06/14 03:16:21;;;;;;;6.32;2.30;;;14.10;99.90;;;;;;4938592;28;20058;-91
2023/06/14 03:18:49;;;;;;;6.43;1.85;;;14.10;99.90;;;;;;4932303;29;20530;-89
2023/06/14 03:21:21;;;;;;;6.20;1.90;;;13.90;99.90;;;;;;4933057;28;20138;-90
2023/06/14 03:23:48;;;;;;;6.47;2.23;;;14.10;99.90;;;;;;4945100;28;20054;-91
2023/06/14 03:26:14;;;;;;;6.20;2.42;;;14.20;99.90;;;;;;4926401;28;20404;-90
2023/06/14 03:28:41;;;;;;;8.05;2.00;;;14.20;99.90;;;;;;4938265;28;20050;-91
2023/06/14 03:31:08;;;;;;;7.97;2.53;;;14.20;99.90;;;;;;4936574;28;20062;-90
2023/06/14 03:33:34;;;;;;;11.07;2.42;;;14.20;99.90;;;;;;4920280;29;20051;-90
2023/06/14 03:36:01;;;;;;;7.45;2.10;;;14.20;99.90;;;;;;4924369;28;20051;-92
2023/06/14 03:38:27;;;;;;;7.22;2.25;;;14.20;99.90;;;;;;4945522;28;20053;-90
2023/06/14 03:40:52;;;;;;;7.70;2.15;;;14.20;99.90;;;;;;4935833;28;20043;-91
2023/06/14 03:43:18;;;;;;;7.65;2.10;;;14.20;99.90;;;;;;4944437;28;20046;-91
2023/06/14 03:45:44;;;;;;;5.70;2.22;;;14.20;99.90;;;;;;4941662;28;20053;-92
2023/06/14 03:48:10;;;;;;;5.25;1.80;;;14.30;99.90;;;;;;4939563;28;20458;-93
2023/06/14 03:50:37;;;;;;;7.80;2.13;;;14.30;99.90;;;;;;4926124;28;20602;-92
2023/06/14 03:53:04;;;;;;;8.57;2.30;;;14.30;99.90;;;;;;4939267;28;20109;-93
2023/06/14 03:55:31;;;;;;;7.10;2.28;;;14.30;99.90;;;;;;4924028;28;20062;-95
2023/06/14 03:57:57;;;;;;;7.40;1.98;;;14.30;99.90;;;;;;4933784;28;20042;-94
2023/06/14 04:00:23;;;;;;;9.45;2.17;;;14.30;99.90;;;;;;4937980;28;20039;-92
2023/06/14 04:02:49;;;;;;;8.57;2.45;;;14.30;99.90;;;;;;4939304;28;20138;-93
2023/06/14 04:05:16;;;;;;;5.40;1.95;;;14.30;99.90;;;;;;4937844;28;20047;-91
2023/06/14 04:07:44;;;;;;;11.25;2.40;;;14.40;99.90;;;;;;4939216;28;20053;-93
2023/06/14 04:10:12;;;;;;;10.00;2.45;;;14.40;99.90;;;;;;4936481;28;20113;-92
2023/06/14 04:12:37;;;;;;;4.53;2.00;;;14.50;99.90;;;;;;4929787;29;20395;-92
2023/06/14 04:15:05;;;;;;;6.40;2.45;;;14.50;99.90;;;;;;4934800;28;20035;-92
2023/06/14 04:17:43;;;;;;;5.55;2.15;;;14.50;99.90;;;;;;4938339;28;20145;-92
2023/06/14 04:20:12;;;;;;;5.75;2.58;;;14.50;99.90;;;;;;4932020;28;20055;-93
2023/06/14 04:22:37;;;;;;;7.88;2.33;;;14.50;99.90;;;;;;4927200;29;20047;-93
2023/06/14 04:25:06;;;;;;;9.20;2.38;;;14.50;99.90;;;;;;4949827;29;20479;-93
2023/06/14 04:27:35;;;;;;;6.05;2.53;;;14.60;99.90;;;;;;4933526;28;20447;-93
2023/06/14 04:30:02;;;;;;;6.88;2.38;;;14.60;99.90;;;;;;4930583;29;20451;-93
2023/06/14 04:32:29;;;;;;;8.70;3.05;;;14.70;99.90;;;;;;4940544;28;20411;-92
2023/06/14 04:34:57;;;;;;;5.63;2.20;;;14.70;99.90;;;;;;4929625;28;20051;-93
2023/06/14 04:37:23;;;;;;;5.00;2.17;;;14.70;99.90;;;;;;4937447;28;20589;-94
2023/06/14 04:39:49;;;;;;;6.88;2.22;;;14.80;99.90;;;;;;4934632;28;20039;-92
2023/06/14 04:42:16;;;;;;;6.18;2.30;;;14.80;99.90;;;;;;4939953;28;20053;-92
2023/06/14 04:44:43;;;;;;;5.47;2.50;;;14.90;99.90;;;;;;4938009;28;20039;-92
2023/06/14 04:47:12;;;;;;;11.18;2.90;;;14.90;99.90;;;;;;4943845;28;20043;-93
2023/06/14 04:49:40;;;;;;;7.93;2.65;;;15.00;99.90;;;;;;4934932;29;20402;-93
2023/06/14 04:52:06;;;;;;;11.13;2.58;;;15.00;99.90;;;;;;4945409;28;20051;-94
2023/06/14 04:54:33;;;;;;;9.52;2.47;;;15.00;99.90;;;;;;4951299;28;20045;-93
2023/06/14 04:56:59;;;;;;;9.88;2.65;;;15.10;99.90;;;;;;4932829;28;20507;-93
2023/06/14 04:59:25;;;;;;;10.20;3.08;;;15.10;99.90;;;;;;4937511;28;20047;-91
2023/06/14 05:01:53;;;;;;;8.88;2.65;;;15.30;99.90;;;;;;4931590;28;20465;-94
2023/06/14 05:04:19;;;;;;;10.52;2.70;;;15.30;99.90;;;;;;4947731;28;20054;-92
2023/06/14 05:06:51;;;;;;;10.55;3.00;;;15.40;99.90;;;;;;4935595;28;20050;-92
2023/06/14 05:09:19;;;;;;;8.32;2.70;;;15.80;99.90;;;;;;4948475;28;20046;-93
2023/06/14 05:11:45;;;;;;;6.65;2.67;;;15.60;99.90;;;;;;4934015;28;20047;-93
2023/06/14 05:14:11;;;;;;;8.68;3.08;;;15.60;99.90;;;;;;4937455;28;20112;-94
2023/06/14 05:16:38;;;;;;;7.65;2.60;;;15.70;99.90;;;;;;4933448;28;20054;-93
2023/06/14 05:19:04;;;;;;;5.32;2.95;;;15.80;99.90;;;;;;4934490;29;20082;-94
2023/06/14 05:21:31;;;;;;;8.48;3.63;;;15.70;99.90;;;;;;4945590;28;20097;-94
2023/06/14 05:23:57;;;;;;;7.32;3.10;;;15.90;99.90;;;;;;4937784;28;20051;-94
2023/06/14 05:26:25;;;;;;;10.63;3.13;;;16.00;99.90;;;;;;4937522;28;20050;-93
2023/06/14 05:28:52;;;;;;;10.30;3.72;;;16.00;99.90;;;;;;4943782;28;20046;-94
2023/06/14 05:31:18;;;;;;;6.95;3.13;;;16.10;99.90;;;;;;4940483;28;20065;-93
2023/06/14 05:33:44;;;;;;;10.25;3.33;;;16.20;99.90;;;;;;4937205;28;20490;-93
2023/06/14 05:36:10;;;;;;;6.25;2.80;;;16.20;99.90;;;;;;4943071;28;20078;-93
2023/06/14 05:38:35;;;;;;;10.02;3.45;;;16.30;99.90;;;;;;4953898;28;20047;-94
2023/06/14 05:41:01;;;;;;;8.25;3.70;;;16.40;99.90;;;;;;4935834;29;20063;-95
2023/06/14 05:43:27;;;;;;;8.18;3.70;;;16.50;99.90;;;;;;4934077;28;20461;-93
2023/06/14 05:45:53;;;;;;;7.55;3.30;;;16.50;99.90;;;;;;4933567;29;20043;-93
2023/06/14 05:48:19;;;;;;;9.45;3.35;;;16.60;99.90;;;;;;4919054;29;20035;-91
2023/06/14 05:50:45;;;;;;;10.15;3.25;;;16.70;99.90;;;;;;4933528;29;20106;-92
2023/06/14 05:53:11;;;;;;;8.82;3.80;;;16.80;99.90;;;;;;4933832;23;20059;-92
2023/06/14 05:55:36;;;;;;;10.05;3.83;;;16.90;99.90;;;;;;4949945;28;20053;-90
2023/06/14 05:58:02;;;;;;;9.52;3.70;;;17.00;99.90;;;;;;4933759;29;20089;-91
2023/06/14 06:00:54;;;;;;;10.02;3.25;;;17.10;99.90;;;;;;4949321;29;20039;-93
2023/06/14 06:03:20;;;;;;;10.60;3.15;;;17.20;99.90;;;;;;4898175;28;20059;-94
2023/06/14 06:05:46;;;;;;;8.70;3.30;;;17.30;99.90;;;;;;4946550;28;20042;-92
2023/06/14 06:08:13;;;;;;;12.27;3.58;;;17.40;99.90;;;;;;4937253;28;20053;-90
2023/06/14 06:10:41;;;;;;;6.40;2.63;;;17.50;99.90;;;;;;4929238;29;20102;-90
2023/06/14 06:13:07;;;;;;;6.07;2.95;;;17.60;99.90;;;;;;4920828;28;20444;-91
2023/06/14 06:15:33;;;;;;;12.20;3.15;;;17.70;99.90;;;;;;4929201;29;20043;-93
2023/06/14 06:17:59;;;;;;;9.27;2.60;;;17.80;99.90;;;;;;4918191;28;20055;-91
2023/06/14 06:20:31;;;;;;;8.32;2.65;;;17.90;99.90;;;;;;4918352;29;20039;-87
2023/06/14 06:22:57;;;;;;;6.82;2.25;;;18.00;99.90;;;;;;4949812;28;20055;-93
2023/06/14 06:25:25;;;;;;;8.40;2.63;;;18.10;99.90;;;;;;4935319;28;20047;-95
2023/06/14 06:27:52;;;;;;;5.93;2.33;;;18.30;99.90;;;;;;4921582;28;20086;-91
2023/06/14 06:30:18;;;;;;;10.65;2.72;;;18.40;99.90;;;;;;4933900;28;20085;-90
2023/06/14 06:32:44;;;;;;;6.20;2.67;;;18.50;99.90;;;;;;4920100;29;20054;-90
2023/06/14 06:35:30;;;;;;;7.22;2.70;;;18.60;99.90;;;;;;4948269;29;20475;-88
2023/06/14 06:37:56;;;;;;;14.73;2.50;;;18.70;99.90;;;;;;4935022;28;20506;-89
2023/06/14 06:40:22;;;;;;;6.80;2.50;;;18.80;99.90;;;;;;4923019;28;20047;-89
2023/06/14 06:42:49;;;;;;;11.05;2.30;;;18.90;99.90;;;;;;4946631;29;20073;-89
2023/06/14 06:45:24;;;;;;;7.75;2.10;;;19.10;99.90;;;;;;4951656;28;20235;-89
2023/06/14 06:47:50;;;;;;;8.52;2.35;;;19.10;99.90;;;;;;4924135;28;20035;-89
2023/06/14 06:50:17;;;;;;;5.80;2.40;;;19.20;99.90;;;;;;4923601;29;20053;-90
2023/06/14 06:52:45;;;;;;;5.03;2.13;;;19.30;99.90;;;;;;4934365;28;20131;-88
2023/06/14 06:55:11;;;;;;;6.07;2.22;;;19.40;99.90;;;;;;4935592;28;20244;-91
2023/06/14 06:57:36;;;;;;;7.82;2.25;;;19.50;99.90;;;;;;4919796;29;20164;-88
2023/06/14 07:00:07;;;;;;;6.22;1.90;;;19.60;99.90;;;;;;4920326;28;20564;-89
2023/06/14 07:02:33;;;;;;;6.30;2.05;;;19.80;99.90;;;;;;4927532;28;20134;-88
2023/06/14 07:05:22;;;;;;;4.85;1.90;;;19.80;99.90;;;;;;4931992;28;20121;-91
2023/06/14 07:07:48;;;;;;;5.63;2.53;;;20.00;99.90;;;;;;4928838;28;20460;-89
2023/06/14 07:10:14;;;;;;;11.90;2.50;;;20.10;99.90;;;;;;4922052;29;20047;-91
2023/06/14 07:12:39;;;;;;;5.88;1.90;;;20.20;99.90;;;;;;4927212;28;20046;-89
2023/06/14 07:15:09;;;;;;;5.93;2.00;;;20.20;99.90;;;;;;4925895;28;20043;-91
2023/06/14 07:17:38;;;;;;;5.80;2.05;;;20.40;99.90;;;;;;4929072;29;20047;-92
2023/06/14 07:20:07;;;;;;;9.40;2.00;;;20.50;99.90;;;;;;4924724;28;20047;-91
2023/06/14 07:22:36;;;;;;;5.57;1.80;;;20.60;99.90;;;;;;4912974;29;20066;-92
2023/06/14 07:25:02;;;;;;;7.30;2.10;;;20.80;99.90;;;;;;4921250;29;20443;-93
2023/06/14 07:27:28;;;;;;;6.07;1.80;;;20.90;99.90;;;;;;4952807;28;20083;-93
2023/06/14 07:29:54;;;;;;;9.48;1.73;;;21.00;99.90;;;;;;4927637;29;20067;-91
2023/06/14 07:32:20;;;;;;;6.10;1.38;;;21.00;99.90;;;;;;4924079;28;20467;-91
2023/06/14 07:34:45;;;;;;;6.40;1.65;;;21.10;99.90;;;;;;4931750;28;20051;-92
2023/06/14 07:37:11;;;;;;;11.02;1.98;;;21.20;99.90;;;;;;4933952;28;20100;-90
2023/06/14 07:39:37;;;;;;;11.05;2.30;;;21.30;99.90;;;;;;4926303;29;20129;-90
2023/06/14 07:42:03;;;;;;;6.20;1.73;;;21.30;99.90;;;;;;4950774;29;20047;-90
2023/06/14 07:44:31;;;;;;;15.25;2.58;;;21.30;99.90;;;;;;4924966;28;20035;-91
2023/06/14 07:46:59;;;;;;;14.13;1.58;;;21.40;99.90;;;;;;4940045;28;20050;-91
2023/06/14 07:49:46;;;;;;;11.02;2.03;;;21.50;99.90;;;;;;4938539;28;20042;-91
2023/06/14 07:52:13;;;;;;;7.18;1.70;;;21.60;99.90;;;;;;4936542;28;20054;-90
2023/06/14 07:54:40;;;;;;;6.90;1.83;;;21.70;99.90;;;;;;4928273;28;20101;-91
2023/06/14 07:57:06;;;;;;;10.10;1.63;;;21.80;99.90;;;;;;4923864;28;20051;-90
2023/06/14 07:59:33;;;;;;;13.80;2.45;;;21.90;99.90;;;;;;4955138;28;20493;-91
2023/06/14 08:01:58;;;;;;;6.40;1.77;;;22.00;99.90;;;;;;4926162;28;20054;-90
2023/06/14 08:04:40;;;;;;;5.50;1.85;;;22.00;99.90;;;;;;4929302;29;20083;-90
2023/06/14 08:07:06;;;;;;;8.35;2.25;;;22.10;99.90;;;;;;4921262;29;20487;-90
2023/06/14 08:09:32;;;;;;;8.15;2.05;;;22.00;99.90;;;;;;4919038;29;20066;-90
2023/06/14 08:11:58;;;;;;;6.55;1.88;;;22.00;99.90;;;;;;4920139;29;20039;-90
2023/06/14 08:14:24;;;;;;;12.98;2.25;;;22.00;99.90;;;;;;4947185;28;20046;-91
2023/06/14 08:16:50;;;;;;;5.90;1.95;;;22.10;99.90;;;;;;4934525;29;20506;-90
2023/06/14 08:19:16;;;;;;;7.22;1.88;;;22.10;99.90;;;;;;4920609;29;20130;-89
2023/06/14 08:21:43;;;;;;;4.72;1.45;;;22.20;99.90;;;;;;4953589;29;20054;-90
2023/06/14 08:24:18;;;;;;;9.60;1.80;;;22.30;99.90;;;;;;4920815;29;20122;-91
2023/06/14 08:26:44;;;;;;;5.43;1.90;;;22.30;99.90;;;;;;4920498;29;20094;-90
2023/06/14 08:29:19;;;;;;;11.07;1.90;;;22.40;99.90;;;;;;4920157;29;20039;-91
2023/06/14 08:31:45;;;;;;;5.47;1.52;;;22.50;99.90;;;;;;4938261;28;20502;-90
2023/06/14 08:34:11;;;;;;;8.27;1.80;;;22.60;99.90;;;;;;4937258;28;20051;-92
2023/06/14 08:36:36;;;;;;;3.33;1.40;;;22.60;99.20;;;;;;4945946;28;20422;-91
2023/06/14 08:39:03;;;;;;;6.70;1.20;;;22.70;98.60;;;;;;4924402;28;20046;-91
2023/06/14 08:41:29;;;;;;;7.20;1.48;;;22.70;98.70;;;;;;4954922;28;20134;-91
2023/06/14 08:43:56;;;;;;;5.50;0.98;;;22.80;98.80;;;;;;4929264;28;20049;-90
2023/06/14 08:46:25;;;;;;;8.80;1.52;;;22.80;98.30;;;;;;4926202;29;20052;-91
2023/06/14 08:48:52;;;;;;;7.22;1.73;;;22.90;98.10;;;;;;4926846;29;20394;-91
2023/06/14 08:51:19;;;;;;;5.38;1.48;;;23.00;98.00;;;;;;4918986;28;20142;-90
2023/06/14 08:53:46;;;;;;;6.72;1.60;;;23.00;97.80;;;;;;4931548;28;20047;-90
2023/06/14 08:56:13;;;;;;;6.18;2.13;;;23.10;98.50;;;;;;4931295;29;20107;-90
2023/06/14 08:58:44;;;;;;;6.65;1.60;;;23.10;98.10;;;;;;4928879;28;20050;-91
2023/06/14 09:01:26;;;;;;;5.50;2.22;;;23.20;98.10;;;;;;4938216;28;20086;-91
2023/06/14 09:03:54;;;;;;;6.40;2.00;;;23.20;97.90;;;;;;4925972;28;20051;-90
2023/06/14 09:06:22;;;;;;;8.85;1.80;;;23.20;97.80;;;;;;4929459;28;20058;-90
2023/06/14 09:08:49;;;;;;;6.55;1.60;;;23.30;97.60;;;;;;4937443;28;20443;-90
2023/06/14 09:11:18;;;;;;;6.80;1.90;;;23.30;97.40;;;;;;4933277;28;20047;-90
2023/06/14 09:13:45;;;;;;;6.03;1.75;;;23.40;97.40;;;;;;4929769;29;20057;-90
2023/06/14 09:16:11;;;;;;;7.55;1.90;;;23.40;97.20;;;;;;4931395;28;20046;-90
2023/06/14 09:18:38;;;;;;;6.97;1.70;;;23.40;96.80;;;;;;4925947;29;20047;-90
2023/06/14 09:21:08;;;;;;;9.40;1.95;;;23.50;97.20;;;;;;4934591;28;20346;-90
2023/06/14 09:23:42;;;;;;;4.32;1.48;;;23.60;96.90;;;;;;4931433;29;20047;-92
2023/06/14 09:26:09;;;;;;;4.30;1.70;;;23.60;96.00;;;;;;4922931;28;20055;-90
2023/06/14 09:28:46;;;;;;;6.35;1.60;;;23.70;96.20;;;;;;4930911;28;20038;-90
2023/06/14 09:31:13;;;;;;;7.80;1.52;;;23.70;96.20;;;;;;4925524;28;20066;-89
2023/06/14 09:33:47;;;;;;;9.15;1.42;;;23.80;96.30;;;;;;4925183;28;20494;-90
2023/06/14 09:36:21;;;;;;;10.63;2.03;;;23.90;96.20;;;;;;4923959;29;20098;-90
2023/06/14 09:38:54;;;;;;;5.45;1.80;;;24.00;95.80;;;;;;4934564;28;20138;-90
2023/06/14 09:41:20;;;;;;;13.07;1.92;;;24.00;95.50;;;;;;4923682;29;20058;-89
2023/06/14 09:43:48;;;;;;;8.40;2.05;;;23.90;95.10;;;;;;4945711;28;20201;-90
2023/06/14 09:46:13;;;;;;;12.35;1.65;;;23.90;95.90;;;;;;4946874;29;20051;-90
2023/06/14 09:48:45;;;;;;;7.93;1.88;;;23.90;95.30;;;;;;4929683;28;20546;-90
2023/06/14 09:51:15;;;;;;;3.65;1.58;;;24.00;95.40;;;;;;4921076;29;20503;-90
2023/06/14 09:53:42;;;;;;;8.30;1.65;;;24.10;94.90;;;;;;4930650;28;20055;-89
2023/06/14 09:56:10;;;;;;;8.82;1.58;;;24.10;94.70;;;;;;4935964;28;20051;-90
2023/06/14 09:58:39;;;;;;;7.10;1.40;;;24.20;94.20;;;;;;4923035;28;20451;-90
2023/06/14 10:01:08;;;;;;;6.55;1.50;;;24.20;94.00;;;;;;4918393;29;20050;-91
2023/06/14 10:03:39;;;;;;;3.35;1.27;;;24.20;93.90;;;;;;4919452;28;20051;-93
2023/06/14 10:06:08;;;;;;;4.25;1.65;;;24.20;93.30;;;;;;4933171;28;20042;-91
2023/06/14 10:08:36;;;;;;;5.72;1.55;;;24.30;93.70;;;;;;4932629;28;20088;-91
2023/06/14 10:11:03;;;;;;;3.92;1.40;;;24.30;93.70;;;;;;4935974;28;20047;-90
2023/06/14 10:13:42;;;;;;;9.32;1.48;;;24.40;94.10;;;;;;4927954;28;20133;-90
2023/06/14 10:16:29;;;;;;;3.88;1.38;;;24.50;93.90;;;;;;4924446;29;20043;-92
2023/06/14 10:19:18;;;;;;;7.65;1.30;;;24.50;93.40;;;;;;4925993;28;20222;-91
2023/06/14 10:22:05;;;;;;;18.15;1.30;;;24.60;93.10;;;;;;4929315;28;20047;-88
2023/06/14 10:24:42;;;;;;;3.75;1.40;;;24.70;92.70;;;;;;4922589;28;20061;-89
2023/06/14 10:27:10;;;;;;;9.43;1.73;;;24.60;92.40;;;;;;4930015;28;20041;-89
2023/06/14 10:29:55;;;;;;;5.05;1.60;;;24.60;92.30;;;;;;4920751;28;20060;-91
2023/06/14 10:32:24;;;;;;;4.28;1.13;;;24.60;92.30;;;;;;4930944;28;20333;-90
2023/06/14 10:34:56;;;;;;;9.82;1.40;;;24.70;92.40;;;;;;4938118;28;20119;-90
2023/06/14 10:37:33;;;;;;;3.17;1.30;;;24.80;92.10;;;;;;4934123;28;20134;-89
2023/06/14 10:40:01;;;;;;;4.55;1.50;;;24.80;92.10;;;;;;4931236;29;20051;-90
2023/06/14 10:42:33;;;;;;;5.57;1.30;;;24.90;92.30;;;;;;4931151;28;20057;-88
2023/06/14 10:45:00;;;;;;;8.80;1.50;;;25.10;93.70;;;;;;4955659;28;20042;-90
2023/06/14 10:47:34;;;;;;;4.85;1.45;;;25.10;92.60;;;;;;4936967;28;20122;-90
2023/06/14 10:50:07;;;;;;;11.00;1.80;;;25.00;91.90;;;;;;4922374;29;20082;-90
2023/06/14 10:52:35;;;;;;;11.38;1.75;;;25.10;92.10;;;;;;4933714;29;20051;-90
2023/06/14 10:55:10;;;;;;;5.88;1.48;;;25.20;91.90;;;;;;4934017;28;20072;-90
2023/06/14 10:57:45;;;;;;;7.72;1.80;;;25.30;91.30;;;;;;4949981;29;20487;-89
2023/06/14 11:00:16;;;;;;;7.07;1.55;;;25.30;91.30;;;;;;4953484;28;20051;-91
2023/06/14 11:03:14;;;;;;;8.82;1.50;;;25.40;92.20;;;;;;4938125;28;20125;-91
2023/06/14 11:05:52;;;;;;;5.82;1.58;;;25.50;91.40;;;;;;4930500;29;20371;-91
2023/06/14 11:08:28;;;;;;;4.80;1.13;;;25.70;91.10;;;;;;4933107;28;20456;-90
2023/06/14 11:10:59;;;;;;;5.57;1.38;;;25.70;90.60;;;;;;4924519;29;20209;-91
2023/06/14 11:13:26;;;;;;;6.13;1.45;;;25.80;90.50;;;;;;4932727;28;20499;-91
2023/06/14 11:15:53;;;;;;;8.18;1.50;;;25.80;90.00;;;;;;4929572;28;20050;-89
2023/06/14 11:18:24;;;;;;;6.40;1.60;;;25.80;90.50;;;;;;4922860;28;20046;-89
2023/06/14 11:20:50;;;;;;;6.07;1.30;;;25.90;91.00;;;;;;4927323;28;20062;-90
2023/06/14 11:23:15;;;;;;;3.72;1.20;;;25.90;90.20;;;;;;4927558;28;20101;-90
2023/06/14 11:25:41;;;;;;;4.03;1.30;;;25.80;89.50;;;;;;4929351;28;20514;-89
2023/06/14 11:28:07;;;;;;;5.28;1.30;;;25.70;89.20;;;;;;4938862;28;20051;-89
2023/06/14 11:30:33;;;;;;;6.97;1.17;;;25.70;88.80;;;;;;4937030;23;20062;-91
2023/06/14 11:32:59;;;;;;;8.30;1.00;;;25.90;90.10;;;;;;4917302;29;20155;-89
2023/06/14 11:35:26;;;;;;;8.90;1.13;;;25.80;88.70;;;;;;4913235;29;20047;-90
2023/06/14 11:37:55;;;;;;;5.85;0.90;;;25.90;88.50;;;;;;4920675;29;20050;-89
2023/06/14 11:40:24;;;;;;;4.28;1.08;;;25.90;87.10;;;;;;4918820;29;20122;-91
2023/06/14 11:42:50;;;;;;;11.68;1.13;;;26.00;87.30;;;;;;4919300;29;20043;-90
2023/06/14 11:45:16;;;;;;;5.18;1.00;;;26.20;86.20;;;;;;4920205;29;20043;-88
2023/06/14 11:47:47;;;;;;;1.92;0.90;;;26.10;85.20;;;;;;4919410;29;20126;-89
2023/06/14 11:50:13;;;;;;;1.38;0.65;;;26.10;84.40;;;;;;4919664;29;20523;-89
2023/06/14 11:52:39;;;;;;;2.35;0.70;;;26.10;84.50;;;;;;4919758;29;20138;-90
2023/06/14 11:55:06;;;;;;;6.85;1.05;;;26.00;84.40;;;;;;4919369;29;20050;-90
2023/06/14 11:57:36;;;;;;;5.80;0.80;;;26.00;84.80;;;;;;4919635;29;20051;-90
2023/06/14 12:00:07;;;;;;;4.45;1.00;;;26.10;84.10;;;;;;4920078;29;20047;-89
2023/06/14 12:02:33;;;;;;;2.90;1.00;;;26.20;83.70;;;;;;4922934;29;20058;-89
2023/06/14 12:05:07;;;;;;;7.97;1.00;;;26.30;84.00;;;;;;4917514;29;20063;-90
2023/06/14 12:07:33;;;;;;;4.55;0.95;;;26.00;82.70;;;;;;4919937;29;20087;-89
2023/06/14 12:09:59;;;;;;;5.47;1.10;;;25.80;82.60;;;;;;4918607;29;20525;-90
2023/06/14 12:12:26;;;;;;;5.47;0.93;;;25.80;83.70;;;;;;4919130;29;20048;-90
2023/06/14 12:14:52;;;;;;;2.33;0.80;;;26.00;83.80;;;;;;4919284;29;20130;-90
2023/06/14 12:17:19;;;;;;;2.55;0.82;;;26.20;83.00;;;;;;4945587;29;20055;-89
2023/06/14 12:19:46;;;;;;;6.65;1.00;;;26.10;82.80;;;;;;4919853;29;20047;-90
2023/06/14 12:22:15;;;;;;;8.98;1.20;;;26.10;82.10;;;;;;4919455;29;20047;-89
2023/06/14 12:24:45;;;;;;;5.72;1.00;;;26.10;83.10;;;;;;4918868;29;20039;-91
2023/06/14 12:27:15;;;;;;;4.80;0.75;;;26.00;82.10;;;;;;4919408;29;20058;-91
2023/06/14 12:29:43;;;;;;;5.38;0.90;;;25.90;84.00;;;;;;4916477;29;20082;-90
2023/06/14 12:32:09;;;;;;;3.95;0.88;;;26.00;83.40;;;;;;4918615;29;20577;-91
2023/06/14 12:34:35;;;;;;;3.45;1.08;;;26.20;84.10;;;;;;4919303;28;20070;-89
2023/06/14 12:37:03;;;;;;;3.05;1.20;;;26.30;82.50;;;;;;4925260;29;20507;-91
2023/06/14 12:39:31;;;;;;;6.38;1.00;;;26.10;81.80;;;;;;4918640;29;20475;-90
2023/06/14 12:41:57;;;;;;;4.05;0.90;;;25.90;83.10;;;;;;4919568;29;20050;-91
2023/06/14 12:44:23;;;;;;;6.95;0.93;;;25.90;83.00;;;;;;4918714;29;20039;-90
2023/06/14 12:46:51;;;;;;;10.15;1.38;;;26.00;82.10;;;;;;4919318;29;20454;-91
2023/06/14 12:49:25;;;;;;;4.35;1.10;;;26.10;83.30;;;;;;4918784;29;20038;-92
2023/06/14 12:51:51;;;;;;;7.97;1.33;;;26.20;82.50;;;;;;4911596;29;20130;-91